Time;durP1;ratioP1;P1;durP2;ratioP2;P2;SDS_P1;SDS_P2;PMS_P1;PMS_P2;Temp;Humidity;BMP_temperature;BMP_pressure;BME280_temperature;BME280_humidity;BME280_pressure;Samples;Min_cycle;Max_cycle;Signal;HPM_P1;HPM_P2
2021/08/09 00:02:02;;;;;;;0.55;0.50;;;;;;;;;;5005808;28;20168;-45
2021/08/09 00:04:28;;;;;;;0.50;0.50;;;;;;;;;;5009599;28;20080;-45
2021/08/09 00:06:55;;;;;;;0.50;0.50;;;;;;;;;;4999803;28;20045;-46
2021/08/09 00:09:22;;;;;;;2.22;0.80;;;;;;;;;;5003078;28;20117;-46
2021/08/09 00:11:49;;;;;;;3.25;0.40;;;;;;;;;;5005367;28;20491;-47
2021/08/09 00:14:16;;;;;;;1.00;0.52;;;;;;;;;;5007828;28;20033;-47
2021/08/09 00:16:42;;;;;;;1.77;0.70;;;;;;;;;;5008417;28;20046;-49
2021/08/09 00:19:09;;;;;;;0.88;0.50;;;;;;;;;;5005131;28;20417;-45
2021/08/09 00:21:36;;;;;;;0.88;0.88;;;;;;;;;;5009121;28;20045;-47
2021/08/09 00:24:03;;;;;;;0.50;0.50;;;;;;;;;;5007314;28;20046;-48
2021/08/09 00:26:30;;;;;;;0.50;0.50;;;;;;;;;;5008452;28;20524;-47
2021/08/09 00:28:56;;;;;;;0.50;0.50;;;;;;;;;;5005873;28;20766;-46
2021/08/09 00:31:23;;;;;;;0.50;0.50;;;;;;;;;;5007354;28;20046;-44
2021/08/09 00:33:50;;;;;;;0.50;0.50;;;;;;;;;;5008763;28;20100;-44
2021/08/09 00:36:16;;;;;;;0.60;0.50;;;;;;;;;;4998711;28;20096;-49
2021/08/09 00:38:43;;;;;;;0.80;0.80;;;;;;;;;;5008131;28;20061;-44
2021/08/09 00:41:10;;;;;;;0.68;0.68;;;;;;;;;;5009189;28;20041;-45
2021/08/09 00:43:37;;;;;;;0.45;0.45;;;;;;;;;;4996725;28;20371;-45
2021/08/09 00:46:04;;;;;;;0.50;0.50;;;;;;;;;;5004881;28;20068;-46
2021/08/09 00:48:34;;;;;;;0.50;0.50;;;;;;;;;;5007090;28;20133;-48
2021/08/09 00:51:01;;;;;;;1.40;0.50;;;;;;;;;;5000763;28;20053;-46
2021/08/09 00:53:29;;;;;;;1.08;0.60;;;;;;;;;;4997528;28;20104;-46
2021/08/09 00:55:56;;;;;;;0.60;0.60;;;;;;;;;;5009726;28;20382;-45
2021/08/09 00:58:23;;;;;;;0.57;0.57;;;;;;;;;;5004297;28;20073;-48
2021/08/09 01:00:49;;;;;;;1.58;0.60;;;;;;;;;;5003736;28;20041;-46
2021/08/09 01:03:16;;;;;;;0.52;0.52;;;;;;;;;;5000288;28;20052;-49
2021/08/09 01:05:43;;;;;;;0.98;0.57;;;;;;;;;;5000395;28;20046;-47
2021/08/09 01:08:19;;;;;;;2.13;0.50;;;;;;;;;;5008749;28;20061;-45
2021/08/09 01:10:52;;;;;;;0.60;0.60;;;;;;;;;;5002817;28;20046;-48
2021/08/09 01:13:22;;;;;;;0.50;0.50;;;;;;;;;;5005308;28;20037;-50
2021/08/09 01:15:51;;;;;;;0.60;0.60;;;;;;;;;;5003306;28;20034;-46
2021/08/09 01:18:19;;;;;;;0.93;0.52;;;;;;;;;;5007813;28;20034;-48
2021/08/09 01:20:47;;;;;;;0.73;0.50;;;;;;;;;;5007174;28;20050;-49
2021/08/09 01:23:17;;;;;;;0.60;0.60;;;;;;;;;;5002595;28;20046;-48
2021/08/09 01:25:50;;;;;;;0.52;0.52;;;;;;;;;;4999559;28;20107;-45
2021/08/09 01:28:18;;;;;;;0.70;0.70;;;;;;;;;;5006281;28;20045;-47
2021/08/09 01:30:46;;;;;;;0.60;0.60;;;;;;;;;;5002786;28;20435;-49
2021/08/09 01:33:14;;;;;;;0.52;0.52;;;;;;;;;;5004960;28;20116;-46
2021/08/09 01:35:41;;;;;;;0.60;0.60;;;;;;;;;;5009648;28;20116;-47
2021/08/09 01:38:07;;;;;;;0.60;0.60;;;;;;;;;;5007600;28;20042;-48
2021/08/09 01:40:35;;;;;;;1.40;0.60;;;;;;;;;;5006446;28;20042;-46
2021/08/09 01:43:02;;;;;;;0.50;0.50;;;;;;;;;;5007735;28;20100;-47
2021/08/09 01:45:30;;;;;;;0.70;0.70;;;;;;;;;;5001781;28;20045;-47
2021/08/09 01:47:57;;;;;;;1.42;0.90;;;;;;;;;;5011454;28;20042;-45
2021/08/09 01:50:25;;;;;;;1.05;0.60;;;;;;;;;;5007330;28;20037;-44
2021/08/09 01:52:52;;;;;;;0.60;0.60;;;;;;;;;;5000690;28;20049;-45
2021/08/09 01:55:19;;;;;;;0.68;0.68;;;;;;;;;;5008642;28;20084;-48
2021/08/09 01:57:46;;;;;;;0.50;0.50;;;;;;;;;;5004775;28;20042;-46
2021/08/09 02:00:14;;;;;;;0.60;0.60;;;;;;;;;;5005520;28;20042;-45
2021/08/09 02:02:41;;;;;;;2.13;0.57;;;;;;;;;;5008233;28;20530;-46
2021/08/09 02:05:10;;;;;;;0.60;0.60;;;;;;;;;;5006714;28;20101;-46
2021/08/09 02:07:38;;;;;;;0.70;0.60;;;;;;;;;;5009329;28;20045;-48
2021/08/09 02:10:08;;;;;;;1.77;0.60;;;;;;;;;;5008199;28;20095;-46
2021/08/09 02:12:55;;;;;;;1.08;0.60;;;;;;;;;;5008310;28;20069;-47
2021/08/09 02:15:29;;;;;;;1.85;0.50;;;;;;;;;;5025753;28;20050;-47
2021/08/09 02:18:05;;;;;;;1.48;0.60;;;;;;;;;;5001294;28;20529;-47
2021/08/09 02:20:34;;;;;;;0.60;0.60;;;;;;;;;;4997862;28;20046;-48
2021/08/09 02:23:03;;;;;;;0.93;0.60;;;;;;;;;;5008920;28;20391;-46
2021/08/09 02:25:32;;;;;;;0.60;0.60;;;;;;;;;;4996411;28;20038;-49
2021/08/09 02:28:18;;;;;;;2.05;0.63;;;;;;;;;;5012338;28;20830;-47
2021/08/09 02:30:47;;;;;;;0.80;0.70;;;;;;;;;;5006138;28;20061;-46
2021/08/09 02:33:15;;;;;;;0.63;0.63;;;;;;;;;;4995249;28;20038;-48
2021/08/09 02:35:43;;;;;;;2.13;0.70;;;;;;;;;;5010539;28;20045;-46
2021/08/09 02:38:10;;;;;;;0.70;0.70;;;;;;;;;;5011837;28;20068;-49
2021/08/09 02:40:38;;;;;;;0.63;0.63;;;;;;;;;;5007503;28;20520;-47
2021/08/09 02:43:05;;;;;;;2.42;0.60;;;;;;;;;;5011234;28;20025;-47
2021/08/09 02:45:32;;;;;;;0.70;0.70;;;;;;;;;;5006364;28;20049;-46
2021/08/09 02:47:59;;;;;;;0.70;0.70;;;;;;;;;;5010698;28;20044;-45
2021/08/09 02:50:26;;;;;;;0.60;0.60;;;;;;;;;;5011481;28;20046;-46
2021/08/09 02:52:54;;;;;;;0.60;0.60;;;;;;;;;;4996659;28;20125;-49
2021/08/09 02:55:21;;;;;;;1.05;0.70;;;;;;;;;;5008761;28;20050;-47
2021/08/09 02:57:49;;;;;;;0.60;0.60;;;;;;;;;;5010861;28;20050;-48
2021/08/09 03:00:16;;;;;;;0.70;0.70;;;;;;;;;;5012001;28;20050;-48
2021/08/09 03:02:43;;;;;;;1.00;0.60;;;;;;;;;;5011305;28;20049;-45
2021/08/09 03:05:11;;;;;;;0.60;0.60;;;;;;;;;;5011406;28;20042;-44
2021/08/09 03:07:40;;;;;;;0.68;0.68;;;;;;;;;;5009483;28;20398;-45
2021/08/09 03:10:11;;;;;;;0.60;0.60;;;;;;;;;;5009109;28;20105;-46
2021/08/09 03:12:38;;;;;;;1.33;0.60;;;;;;;;;;5012321;28;20049;-46
2021/08/09 03:15:05;;;;;;;4.15;0.70;;;;;;;;;;5009519;28;20052;-48
2021/08/09 03:17:32;;;;;;;0.60;0.60;;;;;;;;;;5001910;28;20034;-48
2021/08/09 03:19:59;;;;;;;0.70;0.70;;;;;;;;;;5005992;28;20344;-47
2021/08/09 03:22:26;;;;;;;0.65;0.65;;;;;;;;;;5008743;28;20045;-46
2021/08/09 03:24:52;;;;;;;0.60;0.60;;;;;;;;;;5012030;28;20041;-47
2021/08/09 03:27:19;;;;;;;0.63;0.63;;;;;;;;;;5009837;28;20450;-49
2021/08/09 03:29:46;;;;;;;0.60;0.60;;;;;;;;;;5008968;28;20030;-48
2021/08/09 03:32:13;;;;;;;1.02;0.60;;;;;;;;;;5010361;28;20100;-45
2021/08/09 03:34:39;;;;;;;1.42;0.60;;;;;;;;;;5009324;28;20046;-47
2021/08/09 03:37:06;;;;;;;0.57;0.57;;;;;;;;;;5009844;28;20054;-47
2021/08/09 03:39:33;;;;;;;0.70;0.70;;;;;;;;;;5009388;28;20581;-46
2021/08/09 03:41:59;;;;;;;0.60;0.60;;;;;;;;;;5007353;28;20054;-49
2021/08/09 03:44:26;;;;;;;1.02;0.68;;;;;;;;;;5002499;28;20474;-44
2021/08/09 03:46:53;;;;;;;2.13;0.70;;;;;;;;;;5002012;28;20046;-48
2021/08/09 03:49:20;;;;;;;0.60;0.60;;;;;;;;;;5011454;28;20437;-47
2021/08/09 03:51:46;;;;;;;0.60;0.60;;;;;;;;;;5009153;28;20042;-48
2021/08/09 03:54:13;;;;;;;0.70;0.70;;;;;;;;;;5009582;28;20038;-49
2021/08/09 03:56:40;;;;;;;0.70;0.70;;;;;;;;;;5000896;28;20042;-49
2021/08/09 03:59:07;;;;;;;0.70;0.70;;;;;;;;;;4999496;28;20479;-46
2021/08/09 04:01:38;;;;;;;0.80;0.70;;;;;;;;;;5011112;28;20046;-46
2021/08/09 04:04:06;;;;;;;0.70;0.70;;;;;;;;;;5007440;28;20030;-45
2021/08/09 04:06:33;;;;;;;0.70;0.70;;;;;;;;;;5009161;28;20048;-48
2021/08/09 04:09:00;;;;;;;0.68;0.63;;;;;;;;;;5004238;28;20836;-46
2021/08/09 04:11:26;;;;;;;1.52;0.80;;;;;;;;;;5009663;28;20054;-49
2021/08/09 04:13:55;;;;;;;1.40;0.70;;;;;;;;;;4993242;28;20487;-49
2021/08/09 04:16:22;;;;;;;0.60;0.60;;;;;;;;;;5004727;28;20034;-46
2021/08/09 04:18:49;;;;;;;0.63;0.63;;;;;;;;;;5004094;28;20100;-46
2021/08/09 04:21:16;;;;;;;0.82;0.70;;;;;;;;;;5007424;28;20038;-47
2021/08/09 04:23:43;;;;;;;0.70;0.68;;;;;;;;;;5009212;28;20050;-48
2021/08/09 04:26:10;;;;;;;0.60;0.60;;;;;;;;;;5004815;28;20041;-47
2021/08/09 04:28:36;;;;;;;0.68;0.60;;;;;;;;;;5010563;28;20038;-47
2021/08/09 04:31:03;;;;;;;1.30;0.63;;;;;;;;;;5010364;28;20434;-45
2021/08/09 04:33:30;;;;;;;1.38;0.60;;;;;;;;;;5008895;28;20036;-47
2021/08/09 04:35:57;;;;;;;0.70;0.70;;;;;;;;;;5009721;28;20034;-47
2021/08/09 04:38:23;;;;;;;2.35;0.70;;;;;;;;;;5006062;28;20093;-48
2021/08/09 04:40:50;;;;;;;0.65;0.60;;;;;;;;;;5005279;28;20053;-48
2021/08/09 04:43:17;;;;;;;0.70;0.70;;;;;;;;;;4996335;28;20045;-47
2021/08/09 04:45:45;;;;;;;0.70;0.70;;;;;;;;;;5010639;28;20088;-47
2021/08/09 04:48:12;;;;;;;0.70;0.70;;;;;;;;;;5004147;28;20044;-48
2021/08/09 04:50:39;;;;;;;0.70;0.70;;;;;;;;;;5007590;28;20125;-47
2021/08/09 04:53:08;;;;;;;0.85;0.70;;;;;;;;;;5009115;28;20038;-48
2021/08/09 04:55:35;;;;;;;3.15;0.70;;;;;;;;;;5008573;28;20570;-47
2021/08/09 04:58:04;;;;;;;0.80;0.80;;;;;;;;;;4995255;28;20034;-47
2021/08/09 05:00:31;;;;;;;0.70;0.70;;;;;;;;;;5005768;28;20490;-46
2021/08/09 05:02:58;;;;;;;1.58;0.70;;;;;;;;;;5002420;28;20034;-46
2021/08/09 05:05:24;;;;;;;0.70;0.70;;;;;;;;;;5002654;28;20050;-48
2021/08/09 05:07:54;;;;;;;2.00;0.70;;;;;;;;;;5008532;28;20500;-47
2021/08/09 05:10:25;;;;;;;0.80;0.80;;;;;;;;;;5012652;28;20048;-47
2021/08/09 05:12:52;;;;;;;1.52;0.60;;;;;;;;;;5005496;28;20046;-47
2021/08/09 05:15:21;;;;;;;0.70;0.70;;;;;;;;;;4994761;28;20060;-46
2021/08/09 05:17:48;;;;;;;0.90;0.70;;;;;;;;;;5010029;28;20046;-45
2021/08/09 05:20:15;;;;;;;0.70;0.70;;;;;;;;;;5008192;28;20030;-49
2021/08/09 05:22:41;;;;;;;2.15;0.70;;;;;;;;;;4992000;28;20062;-52
2021/08/09 05:25:10;;;;;;;0.65;0.65;;;;;;;;;;5002677;28;20100;-47
2021/08/09 05:27:38;;;;;;;1.08;0.70;;;;;;;;;;4995640;28;20041;-49
2021/08/09 05:30:05;;;;;;;1.15;0.60;;;;;;;;;;5010355;28;20053;-51
2021/08/09 05:32:32;;;;;;;0.70;0.70;;;;;;;;;;5008491;28;20125;-49
2021/08/09 05:34:59;;;;;;;0.80;0.80;;;;;;;;;;5001044;28;20038;-49
2021/08/09 05:37:27;;;;;;;2.70;2.08;;;;;;;;;;5003280;28;20082;-50
2021/08/09 05:40:01;;;;;;;1.20;0.60;;;;;;;;;;4995545;28;20672;-50
2021/08/09 05:42:27;;;;;;;;;;;;;;;;;;5015177;28;20080;-46
2021/08/09 05:44:54;;;;;;;1.05;0.90;;;;;;;;;;5009642;28;20622;-50
2021/08/09 05:47:21;;;;;;;1.35;0.60;;;;;;;;;;5011407;28;20038;-50
2021/08/09 05:49:48;;;;;;;3.13;0.70;;;;;;;;;;5009844;28;20041;-51
2021/08/09 05:52:18;;;;;;;0.98;0.70;;;;;;;;;;5006913;28;20080;-46
2021/08/09 05:54:45;;;;;;;1.52;0.60;;;;;;;;;;5007491;28;20057;-49
2021/08/09 05:57:12;;;;;;;1.55;0.70;;;;;;;;;;5010347;28;20041;-51
2021/08/09 05:59:39;;;;;;;2.50;0.60;;;;;;;;;;5009838;28;20093;-46
2021/08/09 06:02:06;;;;;;;1.65;0.63;;;;;;;;;;5013417;28;20042;-47
2021/08/09 06:04:33;;;;;;;1.52;0.90;;;;;;;;;;5006784;28;20033;-50
2021/08/09 06:06:59;;;;;;;0.88;0.80;;;;;;;;;;5008166;28;20638;-47
2021/08/09 06:09:26;;;;;;;0.60;0.60;;;;;;;;;;5010497;28;20108;-50
2021/08/09 06:11:53;;;;;;;0.95;0.60;;;;;;;;;;5011794;28;20509;-49
2021/08/09 06:14:20;;;;;;;2.08;0.60;;;;;;;;;;5001711;28;20050;-50
2021/08/09 06:16:47;;;;;;;1.95;0.60;;;;;;;;;;5006191;28;20036;-48
2021/08/09 06:19:14;;;;;;;0.88;0.60;;;;;;;;;;5000576;28;20062;-48
2021/08/09 06:21:49;;;;;;;2.15;0.60;;;;;;;;;;5007832;28;20043;-49
2021/08/09 06:24:16;;;;;;;0.60;0.60;;;;;;;;;;5010939;28;20052;-52
2021/08/09 06:26:43;;;;;;;4.15;0.82;;;;;;;;;;5012148;28;20049;-50
2021/08/09 06:29:10;;;;;;;1.02;0.65;;;;;;;;;;5011319;28;20046;-51
2021/08/09 06:31:37;;;;;;;0.85;0.70;;;;;;;;;;4994777;28;20049;-49
2021/08/09 06:34:04;;;;;;;1.63;0.60;;;;;;;;;;5005656;28;20034;-51
2021/08/09 06:36:31;;;;;;;2.53;0.60;;;;;;;;;;4999340;28;20553;-50
2021/08/09 06:38:58;;;;;;;1.40;0.52;;;;;;;;;;5013428;28;20052;-51
2021/08/09 06:41:26;;;;;;;1.95;0.80;;;;;;;;;;5010539;28;20402;-48
2021/08/09 06:43:53;;;;;;;2.92;0.60;;;;;;;;;;4995998;28;20388;-50
2021/08/09 06:46:22;;;;;;;0.50;0.50;;;;;;;;;;5003269;28;20038;-50
2021/08/09 06:48:50;;;;;;;1.48;0.50;;;;;;;;;;5006983;28;20033;-51
2021/08/09 06:51:17;;;;;;;0.50;0.50;;;;;;;;;;5003566;28;20041;-50
2021/08/09 06:53:44;;;;;;;0.70;0.50;;;;;;;;;;5006793;28;20041;-49
2021/08/09 06:56:15;;;;;;;1.75;0.60;;;;;;;;;;4998157;28;20382;-47
2021/08/09 06:58:42;;;;;;;1.67;0.70;;;;;;;;;;5000038;28;20117;-51
2021/08/09 07:01:09;;;;;;;10.65;0.75;;;;;;;;;;5006048;28;20044;-47
2021/08/09 07:03:36;;;;;;;3.15;0.50;;;;;;;;;;5010588;28;20045;-47
2021/08/09 07:06:03;;;;;;;0.50;0.50;;;;;;;;;;5011032;28;20402;-50
2021/08/09 07:08:30;;;;;;;0.57;0.50;;;;;;;;;;5011374;28;20045;-49
2021/08/09 07:10:57;;;;;;;0.50;0.50;;;;;;;;;;4997921;28;20064;-52
2021/08/09 07:13:24;;;;;;;0.50;0.50;;;;;;;;;;5006056;28;20048;-51
2021/08/09 07:15:51;;;;;;;0.50;0.50;;;;;;;;;;4993649;28;20054;-50
2021/08/09 07:18:18;;;;;;;0.50;0.50;;;;;;;;;;5017658;28;20048;-50
2021/08/09 07:20:46;;;;;;;0.50;0.50;;;;;;;;;;5008526;28;20042;-52
2021/08/09 07:23:15;;;;;;;1.75;0.40;;;;;;;;;;4999467;28;20053;-50
2021/08/09 07:25:42;;;;;;;2.63;0.40;;;;;;;;;;5003964;28;20099;-52
2021/08/09 07:28:09;;;;;;;0.50;0.50;;;;;;;;;;4994192;28;20038;-52
2021/08/09 07:30:35;;;;;;;0.50;0.50;;;;;;;;;;5010041;28;20092;-49
2021/08/09 07:33:02;;;;;;;0.40;0.40;;;;;;;;;;5010483;28;20049;-51
2021/08/09 07:35:29;;;;;;;0.50;0.50;;;;;;;;;;5010899;28;20779;-51
2021/08/09 07:37:56;;;;;;;1.85;0.50;;;;;;;;;;5007903;28;20050;-49
2021/08/09 07:40:23;;;;;;;1.25;0.50;;;;;;;;;;5022723;28;20039;-50
2021/08/09 07:42:51;;;;;;;3.17;0.50;;;;;;;;;;5010804;28;20486;-51
2021/08/09 07:45:18;;;;;;;0.50;0.50;;;;;;;;;;5009368;28;20104;-49
2021/08/09 07:47:45;;;;;;;1.30;0.50;;;;;;;;;;5012343;28;20045;-50
2021/08/09 07:50:12;;;;;;;0.50;0.50;;;;;;;;;;5005987;28;20046;-51
2021/08/09 07:52:39;;;;;;;1.75;0.73;;;;;;;;;;5004500;28;20505;-51
2021/08/09 07:55:06;;;;;;;0.40;0.40;;;;;;;;;;5011983;28;20588;-51
2021/08/09 07:57:32;;;;;;;0.40;0.40;;;;;;;;;;5008056;28;20489;-51
2021/08/09 07:59:59;;;;;;;1.30;0.50;;;;;;;;;;5011141;28;20049;-51
2021/08/09 08:02:26;;;;;;;0.50;0.40;;;;;;;;;;5009699;28;20046;-53
2021/08/09 08:04:53;;;;;;;0.52;0.52;;;;;;;;;;5006079;28;20045;-50
2021/08/09 08:07:20;;;;;;;1.15;0.55;;;;;;;;;;5003458;28;20042;-50
2021/08/09 08:09:48;;;;;;;1.38;0.50;;;;;;;;;;5007265;28;20839;-52
2021/08/09 08:12:15;;;;;;;0.40;0.40;;;;;;;;;;5009574;28;20042;-52
2021/08/09 08:14:42;;;;;;;0.43;0.43;;;;;;;;;;5010898;28;20042;-52
2021/08/09 08:17:09;;;;;;;0.40;0.40;;;;;;;;;;5009789;28;20042;-52
2021/08/09 08:19:36;;;;;;;1.05;0.40;;;;;;;;;;5006473;28;20038;-51
2021/08/09 08:22:03;;;;;;;1.27;0.50;;;;;;;;;;5009644;28;20129;-52
2021/08/09 08:24:30;;;;;;;1.30;0.40;;;;;;;;;;4991599;28;20050;-52
2021/08/09 08:26:57;;;;;;;4.82;0.47;;;;;;;;;;5010428;28;20128;-51
2021/08/09 08:29:23;;;;;;;0.68;0.50;;;;;;;;;;5009590;28;20049;-52
2021/08/09 08:31:50;;;;;;;1.08;0.45;;;;;;;;;;4995543;28;20073;-51
2021/08/09 08:34:17;;;;;;;0.95;0.40;;;;;;;;;;5004010;28;20049;-52
2021/08/09 08:36:44;;;;;;;0.40;0.40;;;;;;;;;;4997946;28;20414;-51
2021/08/09 08:39:11;;;;;;;0.43;0.43;;;;;;;;;;5006013;28;20051;-50
2021/08/09 08:41:41;;;;;;;0.60;0.40;;;;;;;;;;5006398;28;20038;-53
2021/08/09 08:44:07;;;;;;;2.95;0.50;;;;;;;;;;4994517;28;20073;-51
2021/08/09 08:46:38;;;;;;;2.05;0.47;;;;;;;;;;5004771;28;20386;-50
2021/08/09 08:49:05;;;;;;;0.95;0.40;;;;;;;;;;4994606;28;20483;-53
2021/08/09 08:51:32;;;;;;;6.90;0.50;;;;;;;;;;5009647;28;20108;-52
2021/08/09 08:53:59;;;;;;;3.22;0.60;;;;;;;;;;5009442;28;20532;-52
2021/08/09 08:56:26;;;;;;;0.40;0.40;;;;;;;;;;5007080;28;20045;-51
2021/08/09 08:58:53;;;;;;;0.40;0.40;;;;;;;;;;5003114;28;20035;-52
2021/08/09 09:01:33;;;;;;;0.40;0.40;;;;;;;;;;4994298;28;20486;-52
2021/08/09 09:04:18;;;;;;;5.35;0.60;;;;;;;;;;5009839;28;20041;-52
2021/08/09 09:06:44;;;;;;;0.50;0.47;;;;;;;;;;5007446;28;20072;-52
2021/08/09 09:09:22;;;;;;;0.85;0.50;;;;;;;;;;5007584;28;20061;-52
2021/08/09 09:11:49;;;;;;;1.38;0.50;;;;;;;;;;5000273;28;20047;-53
2021/08/09 09:14:29;;;;;;;0.52;0.50;;;;;;;;;;5001962;28;20382;-52
2021/08/09 09:16:57;;;;;;;1.08;0.40;;;;;;;;;;4991749;28;20793;-52
2021/08/09 09:19:38;;;;;;;3.72;0.40;;;;;;;;;;5007986;28;20034;-51
2021/08/09 09:22:09;;;;;;;2.95;0.50;;;;;;;;;;5007885;28;20038;-53
2021/08/09 09:24:36;;;;;;;2.42;0.43;;;;;;;;;;5003677;28;20146;-51
2021/08/09 09:27:10;;;;;;;0.40;0.40;;;;;;;;;;5008686;28;20038;-52
2021/08/09 09:29:38;;;;;;;1.52;0.50;;;;;;;;;;5007710;28;21461;-53
2021/08/09 09:32:14;;;;;;;3.22;0.88;;;;;;;;;;5011058;28;20096;-52
2021/08/09 09:34:44;;;;;;;1.60;0.50;;;;;;;;;;5012610;28;20038;-52
2021/08/09 09:37:20;;;;;;;0.50;0.50;;;;;;;;;;5012232;28;20111;-52
2021/08/09 09:39:47;;;;;;;1.20;0.50;;;;;;;;;;5007780;28;20088;-51
2021/08/09 09:42:15;;;;;;;1.85;0.40;;;;;;;;;;5012886;28;20057;-53
2021/08/09 09:44:42;;;;;;;0.63;0.63;;;;;;;;;;4997278;28;20038;-53
2021/08/09 09:47:28;;;;;;;1.30;0.40;;;;;;;;;;5009719;28;20475;-53
2021/08/09 09:49:56;;;;;;;2.35;0.40;;;;;;;;;;5010649;28;20466;-53
2021/08/09 09:52:29;;;;;;;1.45;0.40;;;;;;;;;;5014357;28;20034;-52
2021/08/09 09:54:57;;;;;;;0.40;0.40;;;;;;;;;;5011606;28;20371;-52
2021/08/09 09:57:25;;;;;;;1.35;0.40;;;;;;;;;;4994733;28;20041;-51
2021/08/09 09:59:52;;;;;;;0.57;0.40;;;;;;;;;;5013020;28;20050;-52
2021/08/09 10:02:19;;;;;;;3.38;0.50;;;;;;;;;;5013819;28;20050;-52
2021/08/09 10:04:46;;;;;;;2.85;0.40;;;;;;;;;;4998244;28;20551;-52
2021/08/09 10:07:14;;;;;;;0.50;0.38;;;;;;;;;;5006319;28;20050;-52
2021/08/09 10:09:42;;;;;;;0.43;0.30;;;;;;;;;;5004492;28;20041;-53
2021/08/09 10:12:09;;;;;;;2.72;0.40;;;;;;;;;;5007883;28;20041;-51
2021/08/09 10:14:36;;;;;;;2.78;0.40;;;;;;;;;;5004132;28;20046;-51
2021/08/09 10:17:03;;;;;;;0.35;0.32;;;;;;;;;;5017989;28;20034;-52
2021/08/09 10:19:30;;;;;;;0.90;0.43;;;;;;;;;;5008459;28;20034;-52
2021/08/09 10:21:57;;;;;;;0.85;0.38;;;;;;;;;;5008924;28;20478;-52
2021/08/09 10:24:40;;;;;;;0.40;0.40;;;;;;;;;;5005456;28;20042;-52
2021/08/09 10:27:07;;;;;;;0.57;0.30;;;;;;;;;;5009823;28;20030;-51
2021/08/09 10:29:54;;;;;;;1.95;0.77;;;;;;;;;;5010157;28;20057;-52
2021/08/09 10:32:21;;;;;;;1.85;0.30;;;;;;;;;;5004173;28;20038;-53
2021/08/09 10:34:48;;;;;;;0.40;0.30;;;;;;;;;;5003681;28;20057;-51
2021/08/09 10:37:15;;;;;;;0.30;0.30;;;;;;;;;;5011885;28;20050;-52
2021/08/09 10:39:48;;;;;;;0.82;0.40;;;;;;;;;;5009527;28;20044;-53
2021/08/09 10:42:28;;;;;;;0.30;0.30;;;;;;;;;;5003574;28;20117;-51
2021/08/09 10:44:55;;;;;;;1.00;0.30;;;;;;;;;;5005942;28;20034;-53
2021/08/09 10:47:41;;;;;;;4.78;0.45;;;;;;;;;;5009043;28;20104;-51
2021/08/09 10:50:07;;;;;;;2.63;0.30;;;;;;;;;;5009180;28;20713;-52
2021/08/09 10:52:35;;;;;;;3.80;0.50;;;;;;;;;;5012546;28;20033;-52
2021/08/09 10:55:25;;;;;;;0.70;0.30;;;;;;;;;;5012338;28;20729;-53
2021/08/09 10:57:52;;;;;;;0.40;0.32;;;;;;;;;;5004073;28;20057;-51
2021/08/09 11:00:37;;;;;;;0.98;0.30;;;;;;;;;;5004705;28;20112;-52
2021/08/09 11:03:08;;;;;;;0.50;0.40;;;;;;;;;;4995613;28;20045;-52
2021/08/09 11:05:35;;;;;;;1.77;0.40;;;;;;;;;;5012491;28;20422;-53
2021/08/09 11:08:14;;;;;;;3.35;0.40;;;;;;;;;;5011257;28;20038;-53
2021/08/09 11:11:00;;;;;;;1.55;0.30;;;;;;;;;;5005393;28;20038;-53
2021/08/09 11:13:27;;;;;;;3.50;0.50;;;;;;;;;;5011859;28;20133;-52
2021/08/09 11:16:01;;;;;;;1.00;0.65;;;;;;;;;;5007639;28;20709;-53
2021/08/09 11:18:29;;;;;;;2.05;0.55;;;;;;;;;;5002032;28;20109;-52
2021/08/09 11:21:03;;;;;;;0.90;0.40;;;;;;;;;;5007173;28;20038;-52
2021/08/09 11:23:39;;;;;;;0.40;0.40;;;;;;;;;;5005335;28;20076;-52
2021/08/09 11:26:07;;;;;;;1.33;0.40;;;;;;;;;;5002246;28;20097;-53
2021/08/09 11:28:33;;;;;;;0.75;0.40;;;;;;;;;;5005163;28;20125;-54
2021/08/09 11:31:02;;;;;;;0.93;0.40;;;;;;;;;;5023035;28;20732;-51
2021/08/09 11:33:35;;;;;;;3.33;0.40;;;;;;;;;;5010666;28;20049;-52
2021/08/09 11:36:09;;;;;;;1.23;0.32;;;;;;;;;;5004148;28;20571;-53
2021/08/09 11:38:43;;;;;;;0.30;0.30;;;;;;;;;;5006928;28;20462;-47
2021/08/09 11:41:11;;;;;;;3.45;0.40;;;;;;;;;;5008779;28;20136;-49
2021/08/09 11:43:38;;;;;;;0.63;0.40;;;;;;;;;;5010143;28;20513;-48
2021/08/09 11:46:16;;;;;;;0.50;0.50;;;;;;;;;;5011279;28;20046;-47
2021/08/09 11:48:45;;;;;;;3.33;0.35;;;;;;;;;;5009129;28;20030;-45
2021/08/09 11:51:13;;;;;;;0.43;0.30;;;;;;;;;;5010569;28;20104;-45
2021/08/09 11:53:45;;;;;;;0.93;0.40;;;;;;;;;;5006870;28;20050;-46
2021/08/09 11:56:19;;;;;;;0.65;0.30;;;;;;;;;;5009460;28;20045;-47
2021/08/09 11:58:47;;;;;;;3.47;0.55;;;;;;;;;;5011218;28;20046;-46
2021/08/09 12:01:32;;;;;;;0.90;0.35;;;;;;;;;;5008516;28;20441;-45
2021/08/09 12:04:00;;;;;;;1.42;0.40;;;;;;;;;;4996611;28;20509;-46
2021/08/09 12:06:27;;;;;;;4.57;0.55;;;;;;;;;;5008620;28;20046;-47
2021/08/09 12:08:55;;;;;;;0.47;0.40;;;;;;;;;;5006876;28;20057;-47
2021/08/09 12:11:23;;;;;;;2.13;0.40;;;;;;;;;;4997823;28;20046;-48
2021/08/09 12:14:00;;;;;;;1.58;0.40;;;;;;;;;;5004449;28;20125;-45
2021/08/09 12:16:27;;;;;;;1.95;0.40;;;;;;;;;;4998699;28;20783;-46
2021/08/09 12:18:54;;;;;;;1.42;0.40;;;;;;;;;;5000338;28;20529;-46
2021/08/09 12:21:31;;;;;;;2.47;0.40;;;;;;;;;;5008197;28;20041;-46
2021/08/09 12:23:59;;;;;;;1.65;0.32;;;;;;;;;;5002843;28;20476;-47
2021/08/09 12:26:28;;;;;;;1.38;0.35;;;;;;;;;;5008419;28;20046;-46
2021/08/09 12:28:56;;;;;;;3.85;0.32;;;;;;;;;;5005200;28;20078;-45
2021/08/09 12:31:30;;;;;;;0.38;0.35;;;;;;;;;;4998988;28;20068;-46
2021/08/09 12:33:59;;;;;;;1.23;0.43;;;;;;;;;;5008453;28;20056;-47
2021/08/09 12:36:26;;;;;;;1.63;0.30;;;;;;;;;;5005891;28;20118;-48
2021/08/09 12:38:53;;;;;;;1.67;0.70;;;;;;;;;;5001855;28;20109;-48
2021/08/09 12:41:25;;;;;;;1.10;0.30;;;;;;;;;;5003548;28;20038;-46
2021/08/09 12:43:51;;;;;;;4.75;0.40;;;;;;;;;;5000141;28;20037;-48
2021/08/09 12:46:18;;;;;;;2.15;0.30;;;;;;;;;;5004371;28;20044;-48
2021/08/09 12:48:46;;;;;;;1.75;0.30;;;;;;;;;;5015203;28;20072;-45
2021/08/09 12:51:13;;;;;;;2.92;0.32;;;;;;;;;;5002074;28;20411;-47
2021/08/09 12:53:40;;;;;;;1.70;0.50;;;;;;;;;;5008686;28;20096;-45
2021/08/09 12:56:06;;;;;;;0.95;0.30;;;;;;;;;;5009631;28;20038;-45
2021/08/09 12:58:35;;;;;;;4.03;0.65;;;;;;;;;;5007562;28;20046;-48
2021/08/09 13:01:01;;;;;;;1.48;0.30;;;;;;;;;;5004923;28;20577;-46
2021/08/09 13:03:28;;;;;;;1.20;0.40;;;;;;;;;;5009896;28;20109;-46
2021/08/09 13:05:56;;;;;;;1.35;0.30;;;;;;;;;;5004691;28;20042;-45
2021/08/09 13:08:22;;;;;;;3.72;0.38;;;;;;;;;;5006165;28;20041;-44
2021/08/09 13:10:49;;;;;;;3.15;0.30;;;;;;;;;;5005319;28;20048;-46
2021/08/09 13:13:16;;;;;;;0.47;0.30;;;;;;;;;;5004426;28;20493;-45
2021/08/09 13:15:43;;;;;;;1.17;0.30;;;;;;;;;;5008998;28;20042;-47
2021/08/09 13:18:10;;;;;;;0.50;0.40;;;;;;;;;;5007611;28;20050;-46
2021/08/09 13:20:36;;;;;;;0.30;0.30;;;;;;;;;;4994563;28;20049;-45
2021/08/09 13:23:03;;;;;;;1.98;0.30;;;;;;;;;;5002978;28;20095;-45
2021/08/09 13:25:30;;;;;;;0.63;0.40;;;;;;;;;;5003391;28;21021;-48
2021/08/09 13:27:58;;;;;;;1.55;0.40;;;;;;;;;;5009294;28;20026;-47
2021/08/09 13:30:25;;;;;;;0.30;0.30;;;;;;;;;;5008201;28;20026;-49
2021/08/09 13:32:52;;;;;;;4.13;0.30;;;;;;;;;;4994380;28;20084;-49
2021/08/09 13:35:19;;;;;;;0.40;0.40;;;;;;;;;;5007268;28;20042;-47
2021/08/09 13:37:46;;;;;;;0.35;0.30;;;;;;;;;;4994345;28;20145;-47
2021/08/09 13:40:12;;;;;;;0.60;0.30;;;;;;;;;;5010166;28;20041;-50
2021/08/09 13:42:59;;;;;;;0.30;0.30;;;;;;;;;;5006328;28;20613;-45
2021/08/09 13:45:26;;;;;;;0.30;0.30;;;;;;;;;;5008623;28;20034;-46
2021/08/09 13:47:53;;;;;;;0.52;0.52;;;;;;;;;;5003524;28;20066;-44
2021/08/09 13:50:20;;;;;;;0.30;0.30;;;;;;;;;;4996707;28;20065;-48
2021/08/09 13:52:47;;;;;;;2.28;0.30;;;;;;;;;;5007172;28;20549;-45
2021/08/09 13:55:14;;;;;;;0.45;0.38;;;;;;;;;;5007800;28;20034;-48
2021/08/09 13:57:41;;;;;;;2.05;0.40;;;;;;;;;;5006622;28;20038;-47
2021/08/09 14:00:08;;;;;;;0.85;0.40;;;;;;;;;;5001952;28;20034;-45
2021/08/09 14:02:34;;;;;;;0.30;0.30;;;;;;;;;;4997459;28;20038;-48
2021/08/09 14:05:01;;;;;;;0.30;0.30;;;;;;;;;;5008550;28;20551;-48
2021/08/09 14:07:28;;;;;;;1.88;0.30;;;;;;;;;;5006078;28;20072;-47
2021/08/09 14:09:54;;;;;;;1.30;0.30;;;;;;;;;;4992252;28;20132;-48
2021/08/09 14:12:21;;;;;;;3.33;0.40;;;;;;;;;;5007782;28;20486;-50
2021/08/09 14:14:48;;;;;;;0.47;0.40;;;;;;;;;;5006786;28;20569;-46
2021/08/09 14:17:15;;;;;;;1.08;0.40;;;;;;;;;;5006658;28;20133;-45
2021/08/09 14:19:42;;;;;;;1.30;0.40;;;;;;;;;;5007197;28;20042;-46
2021/08/09 14:22:09;;;;;;;1.17;0.40;;;;;;;;;;5010815;28;20117;-46
2021/08/09 14:24:36;;;;;;;1.98;0.40;;;;;;;;;;5012286;28;20033;-46
2021/08/09 14:27:04;;;;;;;0.40;0.40;;;;;;;;;;5009831;28;20038;-48
2021/08/09 14:29:32;;;;;;;0.80;0.40;;;;;;;;;;5013978;28;20049;-47
2021/08/09 14:31:59;;;;;;;1.55;0.40;;;;;;;;;;5011084;28;20070;-49
2021/08/09 14:34:26;;;;;;;3.03;0.40;;;;;;;;;;5006280;28;20042;-48
2021/08/09 14:36:52;;;;;;;3.35;0.50;;;;;;;;;;5005138;28;20101;-45
2021/08/09 14:39:19;;;;;;;3.35;0.40;;;;;;;;;;5005186;28;20042;-47
2021/08/09 14:41:46;;;;;;;0.70;0.50;;;;;;;;;;5010809;28;20038;-48
2021/08/09 14:44:12;;;;;;;1.17;0.40;;;;;;;;;;5010772;28;20525;-46
2021/08/09 14:46:39;;;;;;;1.63;0.50;;;;;;;;;;5011511;28;20046;-45
2021/08/09 14:49:06;;;;;;;0.93;0.43;;;;;;;;;;5001022;28;20066;-46
2021/08/09 14:51:33;;;;;;;0.82;0.50;;;;;;;;;;5011336;28;20048;-45